Time;durP1;ratioP1;P1;durP2;ratioP2;P2;SDS_P1;SDS_P2;PMS_P1;PMS_P2;Temp;Humidity;BMP_temperature;BMP_pressure;BME280_temperature;BME280_humidity;BME280_pressure;Samples;Min_cycle;Max_cycle;Signal;HPM_P1;HPM_P2
2023/06/02 00:01:17;;;;;;;;;;;;;;;19.23;57.40;99962.16;5072303;28;19916;-68
2023/06/02 00:03:45;;;;;;;;;;;;;;;19.19;56.44;99959.78;5071144;28;20005;-67
2023/06/02 00:06:14;;;;;;;;;;;;;;;19.16;56.08;99946.50;5071858;28;20474;-68
2023/06/02 00:08:40;;;;;;;;;;;;;;;19.15;56.69;99958.25;5057351;28;19913;-68
2023/06/02 00:11:06;;;;;;;;;;;;;;;19.13;57.31;99954.78;5067818;28;19920;-68
2023/06/02 00:13:31;;;;;;;;;;;;;;;19.12;56.66;99963.84;5070712;28;19916;-68
2023/06/02 00:15:56;;;;;;;;;;;;;;;19.09;57.22;99958.66;5070926;28;19935;-68
2023/06/02 00:18:25;;;;;;;;;;;;;;;19.02;56.76;99958.22;5060659;28;20372;-68
2023/06/02 00:20:50;;;;;;;;;;;;;;;19.01;56.29;99961.88;5058571;28;19913;-67
2023/06/02 00:23:18;;;;;;;;;;;;;;;19.04;56.80;99955.41;5051365;28;19920;-67
2023/06/02 00:25:44;;;;;;;;;;;;;;;18.96;56.71;99958.63;5057772;28;19954;-67
2023/06/02 00:28:09;;;;;;;;;;;;;;;18.96;57.27;99963.16;5051515;28;19915;-67
2023/06/02 00:30:35;;;;;;;;;;;;;;;19.00;56.65;99964.66;5054213;28;19971;-67
2023/06/02 00:33:01;;;;;;;;;;;;;;;18.94;56.04;99957.88;5058023;28;19913;-66
2023/06/02 00:35:26;;;;;;;;;;;;;;;18.98;56.56;99956.69;5061971;28;19924;-67
2023/06/02 00:37:52;;;;;;;;;;;;;;;18.99;56.44;99957.56;5065636;28;19916;-67
2023/06/02 00:40:17;;;;;;;;;;;;;;;18.96;55.94;99953.22;5051401;28;19934;-67
2023/06/02 00:42:42;;;;;;;;;;;;;;;18.94;56.32;99963.28;5067138;28;20383;-66
2023/06/02 00:45:08;;;;;;;;;;;;;;;18.90;56.81;99963.56;5067062;28;19916;-67
2023/06/02 00:47:33;;;;;;;;;;;;;;;18.85;56.98;99960.31;5050901;28;19913;-67
2023/06/02 00:49:59;;;;;;;;;;;;;;;18.82;56.92;99955.13;5050412;28;19974;-67
2023/06/02 00:52:25;;;;;;;;;;;;;;;18.85;57.75;99961.19;5068426;28;19921;-67
2023/06/02 00:54:50;;;;;;;;;;;;;;;18.82;57.11;99956.00;5051257;28;19920;-67
2023/06/02 00:57:16;;;;;;;;;;;;;;;18.77;57.46;99957.25;5060319;28;19920;-67
2023/06/02 00:59:42;;;;;;;;;;;;;;;18.80;57.45;99962.44;5065464;28;19915;-67
2023/06/02 01:02:08;;;;;;;;;;;;;;;18.80;57.62;99962.44;5061374;28;19913;-68
2023/06/02 01:04:34;;;;;;;;;;;;;;;18.82;57.74;99965.91;5056895;28;19959;-68
2023/06/02 01:07:02;;;;;;;;;;;;;;;18.83;58.33;99968.50;5055231;28;19908;-68
2023/06/02 01:09:28;;;;;;;;;;;;;;;18.81;58.06;99958.81;5065210;28;19968;-67
2023/06/02 01:11:53;;;;;;;;;;;;;;;18.78;58.42;99959.00;5050990;28;19916;-67
2023/06/02 01:14:18;;;;;;;;;;;;;;;18.74;58.46;99969.13;5052920;28;19941;-67
2023/06/02 01:16:44;;;;;;;;;;;;;;;18.64;59.00;99962.63;5069305;28;20347;-68
2023/06/02 01:19:13;;;;;;;;;;;;;;;18.55;59.03;99968.59;5069321;28;20313;-67
2023/06/02 01:21:39;;;;;;;;;;;;;;;18.55;59.30;99963.22;5063482;28;20288;-67
2023/06/02 01:24:05;;;;;;;;;;;;;;;18.50;59.58;99959.13;5048721;28;19912;-67
2023/06/02 01:26:34;;;;;;;;;;;;;;;18.51;59.23;99960.81;5048994;28;19908;-67
2023/06/02 01:28:59;;;;;;;;;;;;;;;18.55;59.69;99967.75;5049731;28;19912;-68
2023/06/02 01:31:30;;;;;;;;;;;;;;;18.48;59.33;99967.28;5058508;28;19920;-67
2023/06/02 01:34:05;;;;;;;;;;;;;;;18.39;59.64;99965.19;5035775;28;19916;-68
2023/06/02 01:36:32;;;;;;;;;;;;;;;18.40;60.03;99968.75;5059433;28;19919;-67
2023/06/02 01:38:59;;;;;;;;;;;;;;;18.36;59.97;99968.94;5052878;28;19966;-67
2023/06/02 01:41:27;;;;;;;;;;;;;;;18.35;60.02;99961.78;5059761;28;19930;-67
2023/06/02 01:43:53;;;;;;;;;;;;;;;18.28;59.84;99960.47;5048336;28;20060;-68
2023/06/02 01:46:18;;;;;;;;;;;;;;;18.26;60.63;99962.41;5069680;28;19919;-67
2023/06/02 01:48:44;;;;;;;;;;;;;;;18.19;60.60;99974.53;5061284;28;19908;-68
2023/06/02 01:51:09;;;;;;;;;;;;;;;18.24;60.82;99975.09;5058776;28;19920;-67
2023/06/02 01:53:35;;;;;;;;;;;;;;;18.15;61.15;99970.28;5069409;28;19915;-69
2023/06/02 01:56:00;;;;;;;;;;;;;;;18.12;61.27;99969.66;5051982;28;19920;-68
2023/06/02 01:58:25;;;;;;;;;;;;;;;18.13;61.51;99974.94;5070259;28;20300;-68
2023/06/02 02:00:50;;;;;;;;;;;;;;;18.10;61.61;99971.56;5068619;28;19922;-69
2023/06/02 02:03:17;;;;;;;;;;;;;;;18.03;62.54;99965.72;5067127;28;20330;-68
2023/06/02 02:05:42;;;;;;;;;;;;;;;17.95;62.53;99973.41;5051492;28;19952;-68
2023/06/02 02:08:08;;;;;;;;;;;;;;;17.93;63.17;99969.94;5052652;28;20442;-68
2023/06/02 02:10:33;;;;;;;;;;;;;;;17.89;63.43;99963.00;5069745;28;20003;-68
2023/06/02 02:12:58;;;;;;;;;;;;;;;17.87;62.99;99964.97;5069458;28;19966;-67
2023/06/02 02:15:24;;;;;;;;;;;;;;;17.83;63.92;99963.41;5055412;28;19995;-67
2023/06/02 02:17:49;;;;;;;;;;;;;;;17.78;63.39;99960.16;5067152;28;19916;-67
2023/06/02 02:20:19;;;;;;;;;;;;;;;17.75;63.69;99965.72;5066840;28;19995;-67
2023/06/02 02:22:47;;;;;;;;;;;;;;;17.76;63.82;99966.59;5054569;28;19912;-67
2023/06/02 02:25:12;;;;;;;;;;;;;;;17.76;64.30;99967.44;5069856;28;20015;-67
2023/06/02 02:27:39;;;;;;;;;;;;;;;17.65;64.82;99963.69;5051467;28;19987;-67
2023/06/02 02:30:05;;;;;;;;;;;;;;;17.61;64.63;99972.94;5064451;28;19938;-67
2023/06/02 02:32:33;;;;;;;;;;;;;;;17.57;64.58;99977.63;5061970;28;19923;-67
2023/06/02 02:34:58;;;;;;;;;;;;;;;17.51;64.76;99977.97;5059457;28;20636;-68
2023/06/02 02:37:23;;;;;;;;;;;;;;;17.50;64.59;99978.94;5052882;28;19916;-68
2023/06/02 02:39:49;;;;;;;;;;;;;;;17.41;64.77;99987.56;5055929;28;19916;-67
2023/06/02 02:42:14;;;;;;;;;;;;;;;17.39;65.20;99989.47;5053067;28;20020;-68
2023/06/02 02:44:39;;;;;;;;;;;;;;;17.34;65.12;99986.19;5052133;28;19912;-68
2023/06/02 02:47:05;;;;;;;;;;;;;;;17.32;64.62;99984.53;5050743;28;19912;-69
2023/06/02 02:49:30;;;;;;;;;;;;;;;17.34;64.23;99991.56;5062348;28;19916;-69
2023/06/02 02:51:56;;;;;;;;;;;;;;;17.29;63.96;99985.59;5055598;28;20459;-68
2023/06/02 02:54:26;;;;;;;;;;;;;;;17.29;64.25;99990.09;5070589;28;19919;-69
2023/06/02 02:56:52;;;;;;;;;;;;;;;17.20;64.76;99985.31;5064410;28;19932;-68
2023/06/02 02:59:17;;;;;;;;;;;;;;;17.18;64.86;99989.91;5060520;28;20011;-68
2023/06/02 03:01:46;;;;;;;;;;;;;;;17.04;65.48;99986.22;5053537;28;20102;-68
2023/06/02 03:04:11;;;;;;;;;;;;;;;17.02;65.77;99989.94;5066703;28;19962;-68
2023/06/02 03:06:40;;;;;;;;;;;;;;;17.04;65.84;99993.41;5053606;28;19967;-69
2023/06/02 03:09:06;;;;;;;;;;;;;;;17.01;65.74;99993.59;5054134;28;20014;-69
2023/06/02 03:11:31;;;;;;;;;;;;;;;16.97;66.41;99997.41;5069180;28;20004;-68
2023/06/02 03:13:56;;;;;;;;;;;;;;;16.84;66.97;99993.69;5053201;28;19939;-69
2023/06/02 03:16:22;;;;;;;;;;;;;;;16.80;67.11;99997.53;5071191;28;19994;-68
2023/06/02 03:18:47;;;;;;;;;;;;;;;16.71;66.95;100000.75;5063798;28;19932;-66
2023/06/02 03:21:12;;;;;;;;;;;;;;;16.71;68.33;100004.31;5058921;28;20071;-67
2023/06/02 03:23:40;;;;;;;;;;;;;;;16.69;68.16;99999.97;5053154;28;19928;-67
2023/06/02 03:26:05;;;;;;;;;;;;;;;16.71;68.57;100000.75;5067577;28;19982;-67
2023/06/02 03:28:30;;;;;;;;;;;;;;;16.64;68.68;100004.72;5058351;28;20376;-67
2023/06/02 03:30:56;;;;;;;;;;;;;;;16.60;69.20;100008.56;5066588;28;20384;-67
2023/06/02 03:33:24;;;;;;;;;;;;;;;16.58;68.73;100015.84;5069814;28;19954;-67
2023/06/02 03:35:49;;;;;;;;;;;;;;;16.49;69.76;100016.38;5059391;28;19919;-67
2023/06/02 03:38:14;;;;;;;;;;;;;;;16.49;69.60;100019.06;5050380;28;19912;-67
2023/06/02 03:40:40;;;;;;;;;;;;;;;16.49;69.77;100017.22;5068752;28;19926;-69
2023/06/02 03:43:06;;;;;;;;;;;;;;;16.47;71.02;100023.63;5051475;28;20051;-69
2023/06/02 03:45:31;;;;;;;;;;;;;;;16.40;71.27;100022.22;5063635;28;20046;-68
2023/06/02 03:47:56;;;;;;;;;;;;;;;16.39;71.67;100026.69;5071240;28;19912;-67
2023/06/02 03:50:22;;;;;;;;;;;;;;;16.36;71.82;100026.03;5052879;28;19984;-68
2023/06/02 03:52:47;;;;;;;;;;;;;;;16.35;72.04;100024.28;5053382;28;19919;-68
2023/06/02 03:55:12;;;;;;;;;;;;;;;16.33;71.87;100023.50;5072319;28;19917;-68
2023/06/02 03:57:38;;;;;;;;;;;;;;;16.33;72.91;100034.22;5065528;28;19966;-67
2023/06/02 04:00:06;;;;;;;;;;;;;;;16.30;72.61;100026.34;5049445;28;20023;-67
2023/06/02 04:02:31;;;;;;;;;;;;;;;16.19;73.99;100029.66;5062975;28;19924;-67
2023/06/02 04:04:57;;;;;;;;;;;;;;;16.19;73.61;100029.66;5061630;28;19924;-67
2023/06/02 04:07:22;;;;;;;;;;;;;;;15.76;74.97;100035.59;5069115;28;20015;-68
2023/06/02 04:09:48;;;;;;;;;;;;;;;16.10;74.94;100034.63;5069426;28;20037;-68
2023/06/02 04:12:13;;;;;;;;;;;;;;;16.13;74.20;100035.34;5068993;28;19920;-68
2023/06/02 04:14:38;;;;;;;;;;;;;;;16.11;74.21;100036.38;5052399;28;19916;-67
2023/06/02 04:17:04;;;;;;;;;;;;;;;16.06;76.01;100041.13;5068076;28;19913;-67
2023/06/02 04:19:30;;;;;;;;;;;;;;;16.01;74.93;100049.44;5044893;28;19999;-68
2023/06/02 04:21:55;;;;;;;;;;;;;;;16.09;74.89;100049.00;5052021;28;20011;-67
2023/06/02 04:24:20;;;;;;;;;;;;;;;16.05;74.90;100056.34;5053318;28;19912;-67
2023/06/02 04:26:46;;;;;;;;;;;;;;;15.97;75.27;100053.22;5070174;28;20308;-68
2023/06/02 04:29:11;;;;;;;;;;;;;;;15.95;75.32;100057.81;5052113;28;19912;-67
2023/06/02 04:31:37;;;;;;;;;;;;;;;15.91;76.41;100060.75;5052687;28;19926;-67
2023/06/02 04:34:02;;;;;;;;;;;;;;;15.94;75.73;100065.94;5071900;28;20326;-67
2023/06/02 04:36:28;;;;;;;;;;;;;;;15.91;76.38;100066.97;5071714;28;19912;-68
2023/06/02 04:38:53;;;;;;;;;;;;;;;15.99;75.88;100063.88;5060501;28;19934;-67
2023/06/02 04:41:18;;;;;;;;;;;;;;;15.98;75.88;100067.50;5067010;28;19931;-68
2023/06/02 04:43:44;;;;;;;;;;;;;;;16.05;74.85;100064.41;5071420;28;20448;-67
2023/06/02 04:46:10;;;;;;;;;;;;;;;16.06;76.50;100067.97;5069496;28;20368;-67
2023/06/02 04:48:37;;;;;;;;;;;;;;;16.11;76.03;100064.06;5070641;28;19909;-68
2023/06/02 04:51:02;;;;;;;;;;;;;;;16.15;75.61;100059.41;5069752;28;19920;-68
2023/06/02 04:53:28;;;;;;;;;;;;;;;16.16;74.97;100058.47;5069718;28;19916;-68
2023/06/02 04:55:53;;;;;;;;;;;;;;;16.12;74.64;100059.56;5064092;28;19923;-68
2023/06/02 04:58:18;;;;;;;;;;;;;;;16.08;75.81;100058.88;5055946;28;20285;-68
2023/06/02 05:00:44;;;;;;;;;;;;;;;16.10;74.61;100056.09;5062451;28;19916;-68
2023/06/02 05:03:09;;;;;;;;;;;;;;;16.14;75.41;100074.66;5048732;28;19955;-67
2023/06/02 05:05:34;;;;;;;;;;;;;;;16.21;74.88;100059.09;5062371;28;19962;-67
2023/06/02 05:08:00;;;;;;;;;;;;;;;16.24;75.01;100065.16;5044656;28;19948;-67
2023/06/02 05:10:25;;;;;;;;;;;;;;;16.35;74.50;100065.44;5060126;28;19962;-67
2023/06/02 05:12:52;;;;;;;;;;;;;;;16.47;74.44;100066.59;5050862;28;20364;-68
2023/06/02 05:15:18;;;;;;;;;;;;;;;16.51;73.80;100070.81;5049801;28;19923;-67
2023/06/02 05:17:46;;;;;;;;;;;;;;;16.68;73.66;100076.13;5067760;28;20490;-67
2023/06/02 05:20:11;;;;;;;;;;;;;;;16.65;72.66;100076.31;5066742;28;19960;-68
2023/06/02 05:22:36;;;;;;;;;;;;;;;16.66;72.87;100078.03;5066547;28;20610;-68
2023/06/02 05:25:02;;;;;;;;;;;;;;;16.57;72.16;100067.81;5058514;28;19919;-68
2023/06/02 05:27:27;;;;;;;;;;;;;;;16.72;73.20;100075.84;5066236;28;19912;-69
2023/06/02 05:29:52;;;;;;;;;;;;;;;16.74;72.49;100078.47;5047740;28;19916;-68
2023/06/02 05:32:22;;;;;;;;;;;;;;;16.83;72.31;100073.44;5050224;28;19913;-68
2023/06/02 05:34:47;;;;;;;;;;;;;;;16.88;71.37;100066.00;5055497;28;19921;-68
2023/06/02 05:37:12;;;;;;;;;;;;;;;16.81;71.62;100067.28;5044819;28;19912;-68
2023/06/02 05:39:38;;;;;;;;;;;;;;;16.97;71.53;100072.63;5062239;28;20408;-68
2023/06/02 05:42:03;;;;;;;;;;;;;;;17.09;72.07;100082.69;5067749;28;19912;-70
2023/06/02 05:44:29;;;;;;;;;;;;;;;17.05;70.63;100083.81;5048488;28;19962;-69
2023/06/02 05:46:54;;;;;;;;;;;;;;;17.12;70.58;100081.66;5057950;28;19912;-68
2023/06/02 05:49:20;;;;;;;;;;;;;;;17.34;70.33;100083.00;5059373;28;19970;-68
2023/06/02 05:51:45;;;;;;;;;;;;;;;17.53;70.03;100072.91;5068058;28;20284;-68
2023/06/02 05:54:10;;;;;;;;;;;;;;;17.58;68.92;100076.19;5066720;28;19963;-68
2023/06/02 05:56:36;;;;;;;;;;;;;;;17.68;68.55;100077.34;5068581;28;19957;-68
2023/06/02 05:59:01;;;;;;;;;;;;;;;17.83;68.57;100075.56;5067365;28;19916;-68
2023/06/02 06:01:28;;;;;;;;;;;;;;;17.78;67.00;100070.47;5068410;28;19912;-68
2023/06/02 06:03:53;;;;;;;;;;;;;;;17.74;66.68;100076.13;5060258;28;19943;-68
2023/06/02 06:06:18;;;;;;;;;;;;;;;17.88;66.79;100079.72;5055692;28;19920;-68
2023/06/02 06:08:44;;;;;;;;;;;;;;;17.98;66.24;100080.88;5067813;28;19968;-68
2023/06/02 06:11:09;;;;;;;;;;;;;;;18.15;67.29;100077.13;5065647;28;19975;-68
2023/06/02 06:13:34;;;;;;;;;;;;;;;18.32;66.46;100082.31;5066957;28;19999;-68
2023/06/02 06:16:00;;;;;;;;;;;;;;;18.54;66.17;100080.03;5067001;28;19915;-70
2023/06/02 06:18:25;;;;;;;;;;;;;;;18.62;65.80;100075.00;5061324;28;19916;-69
2023/06/02 06:20:51;;;;;;;;;;;;;;;18.64;64.47;100072.22;5065021;28;19920;-70
2023/06/02 06:23:16;;;;;;;;;;;;;;;18.85;64.45;100073.50;5064703;28;19928;-68
2023/06/02 06:25:41;;;;;;;;;;;;;;;18.86;63.46;100077.94;5048069;28;19913;-69
2023/06/02 06:28:07;;;;;;;;;;;;;;;18.75;62.52;100072.38;5049350;28;19920;-67
2023/06/02 06:30:32;;;;;;;;;;;;;;;18.76;63.11;100074.13;5066174;28;20077;-67
2023/06/02 06:32:59;;;;;;;;;;;;;;;18.69;64.03;100073.66;5066813;28;19916;-68
2023/06/02 06:35:25;;;;;;;;;;;;;;;18.72;62.79;100081.53;5067445;28;19912;-68
2023/06/02 06:37:50;;;;;;;;;;;;;;;18.75;62.95;100080.47;5057552;28;20423;-69
2023/06/02 06:40:15;;;;;;;;;;;;;;;18.87;63.51;100076.97;5075165;28;20651;-67
2023/06/02 06:42:41;;;;;;;;;;;;;;;19.05;63.14;100086.56;5046157;28;19912;-69
2023/06/02 06:45:06;;;;;;;;;;;;;;;19.23;63.50;100090.72;5072240;28;19916;-68
2023/06/02 06:47:31;;;;;;;;;;;;;;;19.32;61.88;100087.47;5063589;28;19920;-69
2023/06/02 06:49:57;;;;;;;;;;;;;;;19.52;62.00;100092.38;5064447;28;20002;-69
2023/06/02 06:52:22;;;;;;;;;;;;;;;19.63;60.97;100096.06;5070757;28;19917;-69
2023/06/02 06:54:47;;;;;;;;;;;;;;;19.87;60.17;100096.19;5045185;28;19946;-69
2023/06/02 06:57:12;;;;;;;;;;;;;;;20.07;59.64;100101.09;5060311;28;20400;-69
2023/06/02 06:59:40;;;;;;;;;;;;;;;20.16;58.33;100100.50;5042511;28;19909;-69
2023/06/02 07:02:06;;;;;;;;;;;;;;;20.15;57.56;100098.75;5064953;28;19939;-68
2023/06/02 07:04:31;;;;;;;;;;;;;;;20.14;58.84;100102.41;5048406;28;19920;-69
2023/06/02 07:06:56;;;;;;;;;;;;;;;20.22;58.20;100100.06;5061166;28;19920;-73
2023/06/02 07:09:24;;;;;;;;;;;;;;;20.31;57.95;100103.94;5065785;28;19916;-72
2023/06/02 07:11:49;;;;;;;;;;;;;;;20.46;58.49;100101.00;5058934;28;19920;-71
2023/06/02 07:14:14;;;;;;;;;;;;;;;20.56;57.99;100102.06;5062924;28;19913;-73
2023/06/02 07:16:43;;;;;;;;;;;;;;;20.48;57.98;100104.47;5050832;28;19913;-69
2023/06/02 07:19:08;;;;;;;;;;;;;;;20.75;57.61;100094.38;5061273;28;19912;-70
2023/06/02 07:21:33;;;;;;;;;;;;;;;20.98;56.57;100097.25;5069874;28;20376;-70
2023/06/02 07:23:59;;;;;;;;;;;;;;;21.45;55.82;100105.41;5075778;28;19915;-70
2023/06/02 07:26:25;;;;;;;;;;;;;;;21.54;53.87;100100.13;5068999;28;19999;-71
2023/06/02 07:28:50;;;;;;;;;;;;;;;21.73;54.78;100105.03;5054358;28;20031;-70
2023/06/02 07:31:17;;;;;;;;;;;;;;;21.70;54.37;100105.22;5056318;28;20034;-69
2023/06/02 07:33:45;;;;;;;;;;;;;;;21.74;53.19;100112.16;5052416;28;19917;-71
2023/06/02 07:36:10;;;;;;;;;;;;;;;22.01;52.98;100110.03;5043878;28;20331;-73
2023/06/02 07:38:35;;;;;;;;;;;;;;;22.01;52.28;100107.31;5051259;28;19912;-71
2023/06/02 07:41:01;;;;;;;;;;;;;;;22.22;51.60;100102.94;5054049;28;20390;-76
2023/06/02 07:43:26;;;;;;;;;;;;;;;22.44;50.37;100102.97;5053537;28;19924;-72
2023/06/02 07:45:51;;;;;;;;;;;;;;;22.69;50.30;100108.19;5058054;28;19942;-74
2023/06/02 07:48:17;;;;;;;;;;;;;;;23.03;50.19;100114.44;5063813;28;19916;-73
2023/06/02 07:50:42;;;;;;;;;;;;;;;22.93;48.95;100117.03;5069888;28;19978;-74
2023/06/02 07:53:07;;;;;;;;;;;;;;;23.13;48.71;100113.53;5034464;28;20430;-72
2023/06/02 07:55:32;;;;;;;;;;;;;;;23.33;49.52;100110.06;5058937;28;19918;-74
2023/06/02 07:57:58;;;;;;;;;;;;;;;23.47;47.90;100116.19;5049141;28;19923;-75
2023/06/02 08:00:23;;;;;;;;;;;;;;;23.53;48.12;100104.81;5054396;28;19982;-74
2023/06/02 08:02:48;;;;;;;;;;;;;;;23.79;47.05;100100.78;5042472;28;20343;-76
2023/06/02 08:05:17;;;;;;;;;;;;;;;24.09;47.00;100096.28;5060154;28;19917;-75
2023/06/02 08:07:43;;;;;;;;;;;;;;;24.28;46.54;100106.44;5037323;28;19913;-75
2023/06/02 08:10:09;;;;;;;;;;;;;;;24.40;46.73;100102.63;5051521;28;19912;-74
2023/06/02 08:12:34;;;;;;;;;;;;;;;24.38;47.68;100112.78;5058151;28;19920;-72
2023/06/02 08:15:00;;;;;;;;;;;;;;;24.43;45.78;100105.94;5042437;28;20337;-78
2023/06/02 08:17:29;;;;;;;;;;;;;;;24.68;45.86;100110.09;5071019;28;19919;-78
2023/06/02 08:19:55;;;;;;;;;;;;;;;24.87;46.29;100107.47;5048207;28;19924;-80
2023/06/02 08:22:20;;;;;;;;;;;;;;;24.76;44.58;100096.66;5051762;28;19917;-74
2023/06/02 08:24:47;;;;;;;;;;;;;;;24.70;44.64;100110.81;5055080;28;19943;-77
2023/06/02 08:27:12;;;;;;;;;;;;;;;24.68;45.69;100107.38;5067287;28;19995;-74
2023/06/02 08:29:38;;;;;;;;;;;;;;;24.94;45.65;100105.03;5075933;28;19951;-73
2023/06/02 08:32:03;;;;;;;;;;;;;;;25.24;43.69;100105.81;5059578;28;19927;-73
2023/06/02 08:34:28;;;;;;;;;;;;;;;25.07;45.37;100101.09;5051455;28;20476;-72
2023/06/02 08:36:56;;;;;;;;;;;;;;;25.25;44.35;100102.13;5056546;28;19938;-70
2023/06/02 08:39:22;;;;;;;;;;;;;;;25.33;44.59;100104.13;5051627;28;19952;-80
2023/06/02 08:41:48;;;;;;;;;;;;;;;25.56;44.57;100101.03;5058296;28;20573;-75
2023/06/02 08:44:14;;;;;;;;;;;;;;;25.63;43.21;100102.16;5063082;28;20304;-67
2023/06/02 08:46:40;;;;;;;;;;;;;;;25.86;43.25;100092.69;5057318;28;19909;-66
2023/06/02 08:49:06;;;;;;;;;;;;;;;26.03;42.90;100101.22;5052632;28;19908;-64
2023/06/02 08:51:33;;;;;;;;;;;;;;;26.15;42.59;100094.56;5062628;28;19956;-63
2023/06/02 08:53:59;;;;;;;;;;;;;;;26.14;43.06;100095.56;5051472;28;19912;-63
2023/06/02 08:56:24;;;;;;;;;;;;;;;26.26;43.87;100083.50;5055569;28;19967;-62
2023/06/02 08:58:49;;;;;;;;;;;;;;;25.78;42.93;100095.28;5058879;28;19948;-62
2023/06/02 09:01:16;;;;;;;;;;;;;;;25.93;43.33;100093.84;5069320;28;19912;-62
2023/06/02 09:03:41;;;;;;;;;;;;;;;25.90;42.92;100091.41;5067812;28;20375;-61
2023/06/02 09:06:20;;;;;;;;;;;;;;;26.30;41.94;100088.50;5070221;28;20002;-61
2023/06/02 09:08:52;;;;;;;;;;;;;;;26.54;41.14;100088.00;5069774;28;19912;-61
2023/06/02 09:11:19;;;;;;;;;;;;;;;26.33;42.07;100084.63;5050367;28;19913;-61
2023/06/02 09:13:44;;;;;;;;;;;;;;;26.57;41.48;100077.63;5050873;28;19912;-61
2023/06/02 09:16:09;;;;;;;;;;;;;;;26.77;41.16;100083.94;5058038;28;19916;-61
2023/06/02 09:18:35;;;;;;;;;;;;;;;26.98;40.48;100087.25;5069841;28;20369;-61
2023/06/02 09:21:00;;;;;;;;;;;;;;;27.18;40.96;100086.16;5069723;28;19916;-60
2023/06/02 09:23:42;;;;;;;;;;;;;;;26.89;40.88;100088.16;5050913;28;19912;-61
2023/06/02 09:26:21;;;;;;;;;;;;;;;26.73;40.22;100082.50;5065470;28;19920;-61
2023/06/02 09:28:59;;;;;;;;;;;;;;;26.87;40.39;100090.22;5050028;28;20272;-60
2023/06/02 09:31:25;;;;;;;;;;;;;;;26.76;40.15;100088.53;5057679;28;20353;-60
2023/06/02 09:33:58;;;;;;;;;;;;;;;26.66;41.26;100081.38;5060975;28;19919;-61
2023/06/02 09:36:29;;;;;;;;;;;;;;;27.11;40.88;100093.22;5069385;28;20030;-60
2023/06/02 09:38:55;;;;;;;;;;;;;;;27.39;42.72;100083.16;5069699;28;20010;-61
2023/06/02 09:41:20;;;;;;;;;;;;;;;27.51;41.02;100090.13;5039613;28;20712;-61
2023/06/02 09:43:46;;;;;;;;;;;;;;;27.42;40.28;100091.91;5069211;28;19912;-61
2023/06/02 09:46:13;;;;;;;;;;;;;;;27.08;40.00;100086.19;5068658;28;19943;-61
2023/06/02 09:48:53;;;;;;;;;;;;;;;27.23;41.86;100089.28;5049020;28;19938;-61
2023/06/02 09:51:25;;;;;;;;;;;;;;;27.28;38.77;100091.56;5058146;28;19970;-61
2023/06/02 09:53:51;;;;;;;;;;;;;;;27.50;40.99;100094.72;5069111;28;19915;-61
2023/06/02 09:56:21;;;;;;;;;;;;;;;27.67;40.26;100091.13;5063857;28;19912;-61
2023/06/02 09:58:46;;;;;;;;;;;;;;;27.59;38.88;100093.78;5067260;28;19908;-61
2023/06/02 10:01:12;;;;;;;;;;;;;;;27.54;38.94;100093.41;5058468;28;19912;-61
2023/06/02 10:03:41;;;;;;;;;;;;;;;27.76;39.20;100084.72;5054234;28;19924;-61
2023/06/02 10:06:20;;;;;;;;;;;;;;;27.91;38.11;100090.50;5065858;28;19927;-61
2023/06/02 10:09:05;;;;;;;;;;;;;;;27.63;38.43;100092.44;5065562;28;19912;-62
2023/06/02 10:11:40;;;;;;;;;;;;;;;27.85;38.45;100089.25;5069821;28;20016;-61
2023/06/02 10:14:05;;;;;;;;;;;;;;;27.82;39.12;100088.69;5051679;28;20250;-61
2023/06/02 10:16:33;;;;;;;;;;;;;;;27.79;38.73;100094.50;5063219;28;19934;-61
2023/06/02 10:19:17;;;;;;;;;;;;;;;27.77;38.28;100091.91;5049618;28;19919;-62
2023/06/02 10:22:01;;;;;;;;;;;;;;;27.64;37.70;100080.53;5049341;28;19913;-61
2023/06/02 10:24:44;;;;;;;;;;;;;;;28.19;40.61;100087.50;5054809;28;19955;-62
2023/06/02 10:27:27;;;;;;;;;;;;;;;28.27;38.40;100073.88;5067728;28;20058;-62
2023/06/02 10:29:53;;;;;;;;;;;;;;;28.26;37.82;100083.09;5063180;28;20050;-61
2023/06/02 10:32:33;;;;;;;;;;;;;;;28.26;36.94;100072.16;5066632;28;20440;-61
2023/06/02 10:34:59;;;;;;;;;;;;;;;28.17;38.03;100084.06;5058870;28;19919;-61
2023/06/02 10:37:26;;;;;;;;;;;;;;;28.41;38.08;100077.91;5068715;28;19919;-61
2023/06/02 10:39:55;;;;;;;;;;;;;;;28.61;37.31;100070.34;5067500;28;20326;-61
2023/06/02 10:42:24;;;;;;;;;;;;;;;28.67;38.00;100070.53;5061684;28;19916;-62
2023/06/02 10:44:52;;;;;;;;;;;;;;;28.71;37.03;100074.69;5052887;28;20023;-61
2023/06/02 10:47:17;;;;;;;;;;;;;;;28.37;37.22;100071.00;5054027;28;20330;-61
2023/06/02 10:49:55;;;;;;;;;;;;;;;28.61;37.15;100071.22;5064276;28;19908;-61
2023/06/02 10:52:21;;;;;;;;;;;;;;;28.78;36.64;100064.78;5068931;28;20327;-61
2023/06/02 10:55:05;;;;;;;;;;;;;;;28.55;36.22;100062.78;5063353;28;19920;-62
2023/06/02 10:57:49;;;;;;;;;;;;;;;29.01;36.90;100070.53;5049690;28;20344;-62
2023/06/02 11:00:36;;;;;;;;;;;;;;;29.18;35.87;100067.72;5054430;28;20513;-62
2023/06/02 11:03:10;;;;;;;;;;;;;;;29.25;35.15;100059.66;5050107;28;19956;-63
2023/06/02 11:05:36;;;;;;;;;;;;;;;29.18;35.22;100064.97;5057545;28;19920;-62
2023/06/02 11:08:18;;;;;;;;;;;;;;;29.00;35.01;100057.84;5055276;28;20488;-62
2023/06/02 11:10:46;;;;;;;;;;;;;;;29.07;35.18;100053.41;5049506;28;19913;-62
2023/06/02 11:13:13;;;;;;;;;;;;;;;29.52;37.80;100056.66;5049597;28;19913;-62
2023/06/02 11:15:38;;;;;;;;;;;;;;;29.87;36.95;100059.09;5066337;28;19965;-62
2023/06/02 11:18:22;;;;;;;;;;;;;;;30.05;34.10;100053.44;5065430;28;19916;-62
2023/06/02 11:20:51;;;;;;;;;;;;;;;30.20;34.24;100049.81;5065865;28;19960;-62
2023/06/02 11:23:17;;;;;;;;;;;;;;;30.03;33.40;100053.63;5066318;28;19995;-62
2023/06/02 11:25:43;;;;;;;;;;;;;;;30.40;33.82;100048.44;5058659;28;19959;-62
2023/06/02 11:28:15;;;;;;;;;;;;;;;30.60;33.10;100044.25;5055011;28;19944;-63
2023/06/02 11:30:40;;;;;;;;;;;;;;;30.18;33.82;100046.38;5059337;28;19920;-63
2023/06/02 11:33:05;;;;;;;;;;;;;;;30.52;33.63;100047.03;5055702;28;20276;-64
2023/06/02 11:35:31;;;;;;;;;;;;;;;30.53;34.37;100045.97;5056998;28;20364;-63
2023/06/02 11:38:04;;;;;;;;;;;;;;;30.84;33.10;100046.94;5053344;28;19912;-63
2023/06/02 11:40:30;;;;;;;;;;;;;;;30.94;33.37;100034.88;5063742;28;20087;-63
2023/06/02 11:42:55;;;;;;;;;;;;;;;30.92;33.45;100044.13;5064228;28;20025;-63
2023/06/02 11:45:21;;;;;;;;;;;;;;;31.16;32.98;100034.06;5066285;28;19923;-63
2023/06/02 11:47:54;;;;;;;;;;;;;;;31.45;32.15;100029.59;5060000;28;19923;-63
2023/06/02 11:50:20;;;;;;;;;;;;;;;31.52;31.67;100035.22;5062224;28;20544;-63
2023/06/02 11:52:45;;;;;;;;;;;;;;;31.40;31.53;100028.47;5052814;28;19923;-63
2023/06/02 11:55:10;;;;;;;;;;;;;;;31.37;32.10;100026.91;5059713;28;19908;-62
2023/06/02 11:57:36;;;;;;;;;;;;;;;31.17;31.16;100027.53;5064043;28;19912;-63
2023/06/02 12:00:06;;;;;;;;;;;;;;;31.20;31.45;100027.19;5064078;28;19996;-63
2023/06/02 12:02:32;;;;;;;;;;;;;;;31.12;31.02;100021.72;5060350;28;20011;-63
2023/06/02 12:04:57;;;;;;;;;;;;;;;31.06;30.86;100030.69;5062731;28;20022;-62
2023/06/02 12:07:29;;;;;;;;;;;;;;;30.83;31.10;100022.38;5058583;28;20336;-62
2023/06/02 12:09:54;;;;;;;;;;;;;;;30.40;31.01;100020.09;5067470;28;19912;-63
2023/06/02 12:12:20;;;;;;;;;;;;;;;30.68;31.06;100025.00;5064889;28;20265;-62
2023/06/02 12:14:45;;;;;;;;;;;;;;;30.84;32.72;100013.13;5057520;28;19988;-62
2023/06/02 12:17:10;;;;;;;;;;;;;;;31.01;31.84;100014.72;5051676;28;19913;-62
2023/06/02 12:19:35;;;;;;;;;;;;;;;30.82;31.27;100016.03;5058423;28;19912;-62
2023/06/02 12:22:10;;;;;;;;;;;;;;;30.81;32.43;100006.09;5055699;28;19916;-62
2023/06/02 12:24:37;;;;;;;;;;;;;;;30.96;31.60;100010.81;5052054;28;19912;-62
2023/06/02 12:27:03;;;;;;;;;;;;;;;30.82;30.08;100016.03;5051082;28;20299;-62
2023/06/02 12:29:28;;;;;;;;;;;;;;;31.15;29.68;100011.22;5056428;28;20003;-63
2023/06/02 12:32:05;;;;;;;;;;;;;;;31.08;30.25;100012.13;5057323;28;19943;-62
2023/06/02 12:34:30;;;;;;;;;;;;;;;31.00;30.83;100020.41;5063414;28;19971;-63
2023/06/02 12:36:56;;;;;;;;;;;;;;;30.88;29.57;100015.34;5058473;28;20354;-62
2023/06/02 12:39:21;;;;;;;;;;;;;;;30.65;31.45;100014.38;5057957;28;20433;-62